createdAt,value
2022-09-14T00:02:20.727Z,100430.34
2022-09-14T00:04:47.588Z,100428.66
2022-09-14T00:07:14.213Z,100431.63
2022-09-14T00:09:40.898Z,100435.34
2022-09-14T00:12:07.630Z,100424.59
2022-09-14T00:14:34.469Z,100428.22
2022-09-14T00:17:01.206Z,100417.69
2022-09-14T00:19:28.347Z,100422.16
2022-09-14T00:21:57.022Z,100414.31
2022-09-14T00:24:25.757Z,100405.38
2022-09-14T00:26:53.099Z,100409.97
2022-09-14T00:29:19.816Z,100406.78
2022-09-14T00:31:46.573Z,100404.94
2022-09-14T00:34:14.980Z,100394.41
2022-09-14T00:36:47.467Z,100395.44
2022-09-14T00:39:14.938Z,100399.06
2022-09-14T00:41:43.706Z,100401.97
2022-09-14T00:44:10.297Z,100395.63
2022-09-14T00:46:38.123Z,100384.97
2022-09-14T00:49:10.351Z,100377.34
2022-09-14T00:51:48.100Z,100377.34
2022-09-14T00:54:14.818Z,100378.41
2022-09-14T00:56:41.526Z,100367.88
2022-09-14T00:59:16.453Z,100382.22
2022-09-14T01:01:44.721Z,100378.06
2022-09-14T01:04:11.744Z,100374.44
2022-09-14T01:06:49.650Z,100374.53
2022-09-14T01:09:29.691Z,100373.75
2022-09-14T01:12:23.473Z,100377.47
2022-09-14T01:15:02.414Z,100372.09
2022-09-14T01:17:32.786Z,100374.03
2022-09-14T01:20:15.398Z,100373.03
2022-09-14T01:22:52.374Z,100375.91
2022-09-14T01:25:45.975Z,100364.22
2022-09-14T01:28:20.743Z,100365.97
2022-09-14T01:30:48.124Z,100372.34
2022-09-14T01:33:29.702Z,100367.19
2022-09-14T01:35:58.679Z,100372.34
2022-09-14T01:38:36.327Z,100357.16
2022-09-14T01:41:04.987Z,100361.91
2022-09-14T01:43:40.808Z,100365.63
2022-09-14T01:46:17.794Z,100363.97
2022-09-14T01:48:50.966Z,100365.00
2022-09-14T01:51:39.653Z,100367.75
2022-09-14T01:54:29.180Z,100380.50
2022-09-14T01:57:07.172Z,100380.59
2022-09-14T01:59:38.035Z,100379.09
2022-09-14T02:02:09.822Z,100381.00
2022-09-14T02:04:54.724Z,100377.19
2022-09-14T02:07:21.428Z,100368.47
2022-09-14T02:09:48.860Z,100367.59
2022-09-14T02:12:15.995Z,100371.41
2022-09-14T02:14:44.312Z,100366.19
2022-09-14T02:17:11.031Z,100366.13
2022-09-14T02:19:46.976Z,100369.00
2022-09-14T02:22:13.874Z,100376.16
2022-09-14T02:24:40.578Z,100382.47
2022-09-14T02:27:07.931Z,100380.56
2022-09-14T02:29:35.199Z,100371.81
2022-09-14T02:32:34.312Z,100362.75
2022-09-14T02:35:13.313Z,100359.34
2022-09-14T02:37:47.565Z,100348.63
2022-09-14T02:40:35.857Z,100349.75
2022-09-14T02:43:10.866Z,100357.97
2022-09-14T02:45:48.930Z,100360.94
2022-09-14T02:48:26.742Z,100348.47
2022-09-14T02:51:18.256Z,100351.06
2022-09-14T02:53:59.743Z,100353.81
2022-09-14T02:56:27.412Z,100356.66
2022-09-14T02:58:54.116Z,100357.53
2022-09-14T03:01:22.605Z,100356.81
2022-09-14T03:03:49.630Z,100348.75
2022-09-14T03:06:16.699Z,100355.94
2022-09-14T03:08:43.696Z,100349.63
2022-09-14T03:11:10.585Z,100355.63
2022-09-14T03:13:37.473Z,100354.84
2022-09-14T03:16:06.176Z,100363.91
2022-09-14T03:18:33.883Z,100363.75
2022-09-14T03:21:11.585Z,100360.31
2022-09-14T03:23:46.117Z,100357.66
2022-09-14T03:26:21.367Z,100350.59
2022-09-14T03:28:56.853Z,100347.97
2022-09-14T03:31:25.453Z,100348.06
2022-09-14T03:33:57.006Z,100341.06
2022-09-14T03:36:25.771Z,100340.09
2022-09-14T03:38:53.874Z,100341.91
2022-09-14T03:41:21.635Z,100344.69
2022-09-14T03:43:48.546Z,100338.47
2022-09-14T03:46:17.942Z,100342.97
2022-09-14T03:48:45.121Z,100341.00
2022-09-14T03:51:13.341Z,100336.63
2022-09-14T03:53:40.991Z,100336.81
2022-09-14T03:56:17.678Z,100336.91
2022-09-14T03:58:45.960Z,100335.16
2022-09-14T04:01:14.919Z,100335.34
2022-09-14T04:03:41.984Z,100341.47
2022-09-14T04:06:10.103Z,100339.84
2022-09-14T04:08:39.138Z,100344.31
2022-09-14T04:11:11.147Z,100354.25
2022-09-14T04:13:38.108Z,100344.50
2022-09-14T04:16:05.176Z,100340.06
2022-09-14T04:18:32.191Z,100336.59
2022-09-14T04:21:05.750Z,100341.03
2022-09-14T04:23:46.151Z,100331.16
2022-09-14T04:26:23.478Z,100325.03
2022-09-14T04:28:50.173Z,100326.78
2022-09-14T04:31:16.915Z,100330.38
2022-09-14T04:33:44.138Z,100337.56
2022-09-14T04:36:13.362Z,100333.94
2022-09-14T04:38:41.000Z,100337.66
2022-09-14T04:41:13.075Z,100335.94
2022-09-14T04:43:40.634Z,100330.56
2022-09-14T04:46:11.650Z,100319.84
2022-09-14T04:48:38.481Z,100322.44
2022-09-14T04:51:18.796Z,100321.41
2022-09-14T04:53:50.465Z,100319.41
2022-09-14T04:56:18.158Z,100324.69
2022-09-14T04:58:50.818Z,100323.75
2022-09-14T05:01:20.293Z,100318.41
2022-09-14T05:03:47.001Z,100308.69
2022-09-14T05:06:14.604Z,100314.75
2022-09-14T05:08:42.134Z,100318.28
2022-09-14T05:11:10.107Z,100319.06
2022-09-14T05:13:36.819Z,100316.41
2022-09-14T05:16:11.614Z,100316.31
2022-09-14T05:18:38.428Z,100321.59
2022-09-14T05:21:08.518Z,100327.66
2022-09-14T05:23:35.702Z,100312.38
2022-09-14T05:26:03.021Z,100319.38
2022-09-14T05:28:30.180Z,100312.91
2022-09-14T05:30:57.013Z,100321.75
2022-09-14T05:33:23.776Z,100330.47
2022-09-14T05:35:52.010Z,100328.41
2022-09-14T05:38:18.755Z,100322.94
2022-09-14T05:40:45.517Z,100319.25
2022-09-14T05:43:12.190Z,100319.84
2022-09-14T05:45:39.006Z,100317.94
2022-09-14T05:48:05.812Z,100322.19
2022-09-14T05:50:33.547Z,100317.44
2022-09-14T05:53:00.659Z,100313.56
2022-09-14T05:55:27.332Z,100315.97
2022-09-14T05:57:54.149Z,100313.00
2022-09-14T06:00:21.833Z,100300.38
2022-09-14T06:02:50.114Z,100300.81
2022-09-14T06:05:17.180Z,100299.50
2022-09-14T06:07:44.111Z,100291.16
2022-09-14T06:10:11.680Z,100291.00
2022-09-14T06:12:38.810Z,100283.44
2022-09-14T06:15:06.030Z,100285.88
2022-09-14T06:17:32.670Z,100288.88
2022-09-14T06:20:04.051Z,100291.28
2022-09-14T06:22:31.952Z,100291.00
2022-09-14T06:24:58.578Z,100284.00
2022-09-14T06:27:25.606Z,100289.28
2022-09-14T06:29:53.933Z,100287.09
2022-09-14T06:32:21.232Z,100278.66
2022-09-14T06:34:47.857Z,100275.63
2022-09-14T06:37:14.574Z,100281.75
2022-09-14T06:39:41.295Z,100283.81
2022-09-14T06:42:08.078Z,100285.34
2022-09-14T06:44:38.853Z,100290.06
2022-09-14T06:47:05.536Z,100289.66
2022-09-14T06:49:32.334Z,100290.63
2022-09-14T06:52:00.955Z,100283.91
2022-09-14T06:54:27.702Z,100279.22
2022-09-14T06:56:55.460Z,100282.75
2022-09-14T06:59:22.256Z,100290.72
2022-09-14T07:01:49.849Z,100287.16
2022-09-14T07:04:17.031Z,100292.84
2022-09-14T07:06:48.362Z,100294.44
2022-09-14T07:09:17.203Z,100292.94
2022-09-14T07:11:44.227Z,100298.84
2022-09-14T07:14:11.572Z,100296.16
2022-09-14T07:16:39.529Z,100294.81
2022-09-14T07:19:11.102Z,100300.56
2022-09-14T07:21:37.774Z,100294.16
2022-09-14T07:24:04.965Z,100291.28
2022-09-14T07:26:36.082Z,100290.09
2022-09-14T07:29:05.014Z,100288.94
2022-09-14T07:31:38.332Z,100287.38
2022-09-14T07:34:05.991Z,100285.25
2022-09-14T07:36:35.184Z,100286.59
2022-09-14T07:39:03.773Z,100293.91
2022-09-14T07:41:32.320Z,100291.13
2022-09-14T07:44:00.846Z,100284.59
2022-09-14T07:46:33.369Z,100284.78
2022-09-14T07:49:02.567Z,100289.41
2022-09-14T07:51:30.468Z,100296.47
2022-09-14T07:53:57.653Z,100297.88
2022-09-14T07:56:25.987Z,100296.59
2022-09-14T07:59:24.186Z,100292.41
2022-09-14T08:01:50.253Z,100288.44
2022-09-14T08:04:17.063Z,100291.81
2022-09-14T08:06:43.771Z,100287.06
2022-09-14T08:09:10.552Z,100294.38
2022-09-14T08:11:38.284Z,100289.63
2022-09-14T08:14:06.975Z,100291.97
2022-09-14T08:16:38.989Z,100286.03
2022-09-14T08:19:07.933Z,100283.94
2022-09-14T08:21:35.843Z,100292.69
2022-09-14T08:24:04.396Z,100292.88
2022-09-14T08:26:31.608Z,100284.66
2022-09-14T08:29:02.104Z,100283.88
2022-09-14T08:31:29.269Z,100286.50
2022-09-14T08:33:58.925Z,100282.47
2022-09-14T08:36:27.766Z,100284.69
2022-09-14T08:38:54.487Z,100271.78
2022-09-14T08:41:24.041Z,100278.41
2022-09-14T08:43:52.132Z,100276.47
2022-09-14T08:46:49.246Z,100280.25
2022-09-14T08:49:38.257Z,100286.44
2022-09-14T08:52:05.642Z,100277.63
2022-09-14T08:54:37.297Z,100277.88
2022-09-14T08:57:12.650Z,100287.88
2022-09-14T08:59:52.982Z,100280.09
2022-09-14T09:02:40.973Z,100271.69
2022-09-14T09:05:20.353Z,100276.38
2022-09-14T09:07:57.960Z,100274.41
2022-09-14T09:10:26.396Z,100272.81
2022-09-14T09:12:59.230Z,100267.66
2022-09-14T09:15:37.149Z,100259.13
2022-09-14T09:18:08.439Z,100260.91
2022-09-14T09:20:39.640Z,100253.41
2022-09-14T09:23:19.866Z,100269.66
2022-09-14T09:26:06.209Z,100270.19
2022-09-14T09:28:33.855Z,100266.44
2022-09-14T09:31:10.246Z,100255.31
2022-09-14T09:33:58.312Z,100260.88
2022-09-14T09:36:26.398Z,100263.50
2022-09-14T09:38:54.141Z,100256.78
2022-09-14T09:41:25.666Z,100253.19
2022-09-14T09:44:09.618Z,100250.34
2022-09-14T09:46:46.126Z,100248.41
2022-09-14T09:49:31.951Z,100249.03
2022-09-14T09:52:12.890Z,100252.56
2022-09-14T09:54:49.726Z,100245.56
2022-09-14T09:57:28.847Z,100250.25
2022-09-14T10:00:31.221Z,100253.94
2022-09-14T10:02:57.953Z,100250.72
2022-09-14T10:05:29.142Z,100241.84
2022-09-14T10:08:09.357Z,100243.31
2022-09-14T10:10:38.878Z,100250.06
2022-09-14T10:13:14.536Z,100236.28
2022-09-14T10:15:43.265Z,100230.91
2022-09-14T10:18:13.372Z,100236.81
2022-09-14T10:20:43.041Z,100239.13
2022-09-14T10:23:18.761Z,100245.59
2022-09-14T10:25:50.112Z,100237.97
2022-09-14T10:28:26.986Z,100236.59
2022-09-14T10:31:00.815Z,100236.50
2022-09-14T10:33:28.959Z,100223.38
2022-09-14T10:36:13.363Z,100215.06
2022-09-14T10:38:58.745Z,100215.78
2022-09-14T10:41:31.404Z,100204.31
2022-09-14T10:44:04.129Z,100203.59
2022-09-14T10:46:37.635Z,100196.69
2022-09-14T10:49:10.498Z,100208.00
2022-09-14T10:51:50.584Z,100210.94
2022-09-14T10:54:31.917Z,100217.25
2022-09-14T10:57:05.665Z,100208.47
2022-09-14T10:59:44.347Z,100215.09
2022-09-14T11:02:14.279Z,100212.31
2022-09-14T11:04:45.872Z,100213.06
2022-09-14T11:07:32.753Z,100211.38
2022-09-14T11:10:17.578Z,100200.53
2022-09-14T11:12:59.531Z,100214.81
2022-09-14T11:15:41.354Z,100206.53
2022-09-14T11:18:34.465Z,100206.06
2022-09-14T11:21:35.597Z,100209.91
2022-09-14T11:24:18.746Z,100214.94
2022-09-14T11:26:59.703Z,100201.94
2022-09-14T11:29:33.473Z,100200.53
2022-09-14T11:32:21.054Z,100205.50
2022-09-14T11:34:56.698Z,100213.78
2022-09-14T11:37:33.138Z,100203.38
2022-09-14T11:40:06.222Z,100208.53
2022-09-14T11:42:37.565Z,100201.22
2022-09-14T11:45:37.740Z,100206.75
2022-09-14T11:48:42.368Z,100204.44
2022-09-14T11:51:16.354Z,100194.41
2022-09-14T11:53:43.705Z,100186.41
2022-09-14T11:56:34.133Z,100180.72
2022-09-14T11:59:04.604Z,100187.78
2022-09-14T12:01:38.089Z,100183.06
2022-09-14T12:04:25.032Z,100184.22
2022-09-14T12:06:54.746Z,100183.66
2022-09-14T12:09:21.437Z,100194.38
2022-09-14T12:11:55.594Z,100188.09
2022-09-14T12:14:27.918Z,100188.22
2022-09-14T12:17:38.958Z,100184.22
2022-09-14T12:20:34.514Z,100185.44
2022-09-14T12:23:05.908Z,100182.59
2022-09-14T12:25:34.236Z,100179.16
2022-09-14T12:28:01.034Z,100192.44
2022-09-14T12:30:41.001Z,100184.44
2022-09-14T12:33:36.373Z,100186.44
2022-09-14T12:36:12.929Z,100179.13
2022-09-14T12:38:55.306Z,100172.44
2022-09-14T12:41:21.989Z,100172.94
2022-09-14T12:43:54.586Z,100170.69
2022-09-14T12:46:21.409Z,100175.59
2022-09-14T12:48:48.218Z,100177.13
2022-09-14T12:51:24.042Z,100175.19
2022-09-14T12:54:13.839Z,100170.66
2022-09-14T12:56:46.811Z,100166.69
2022-09-14T12:59:55.137Z,100155.41
2022-09-14T13:02:37.133Z,100156.28
2022-09-14T13:05:08.182Z,100149.44
2022-09-14T13:07:39.132Z,100138.28
2022-09-14T13:10:06.952Z,100143.16
2022-09-14T13:12:41.319Z,100127.00
2022-09-14T13:15:20.962Z,100115.88
2022-09-14T13:17:59.682Z,100111.16
2022-09-14T13:20:26.706Z,100118.16
2022-09-14T13:22:53.504Z,100116.56
2022-09-14T13:25:49.818Z,100109.59
2022-09-14T13:28:18.038Z,100117.00
2022-09-14T13:30:54.519Z,100115.13
2022-09-14T13:33:21.560Z,100116.84
2022-09-14T13:35:51.241Z,100122.41
2022-09-14T13:38:33.783Z,100118.13
2022-09-14T13:41:15.754Z,100111.94
2022-09-14T13:43:43.540Z,100111.50
2022-09-14T13:46:11.817Z,100114.31
2022-09-14T13:48:42.625Z,100109.31
2022-09-14T13:51:10.966Z,100103.44
2022-09-14T13:53:43.660Z,100111.13
2022-09-14T13:56:33.828Z,100108.59
2022-09-14T13:59:10.723Z,100102.88
2022-09-14T14:01:46.543Z,100090.16
2022-09-14T14:04:34.886Z,100086.44
2022-09-14T14:07:12.524Z,100077.44
2022-09-14T14:09:44.103Z,100084.25
2022-09-14T14:12:12.444Z,100086.78
2022-09-14T14:14:39.258Z,100083.34
2022-09-14T14:17:26.194Z,100081.09
2022-09-14T14:19:55.285Z,100081.38
2022-09-14T14:22:27.256Z,100074.25
2022-09-14T14:27:46.870Z,100066.50
2022-09-14T14:30:19.101Z,100064.81
2022-09-14T14:32:56.119Z,100067.66
2022-09-14T14:35:25.825Z,100064.34
2022-09-14T14:37:52.777Z,100061.09
2022-09-14T14:40:19.931Z,100058.25
2022-09-14T14:42:47.267Z,100065.22
2022-09-14T14:45:17.936Z,100074.75
2022-09-14T14:47:46.737Z,100072.16
2022-09-14T14:50:15.200Z,100072.44
2022-09-14T14:52:41.901Z,100072.88
2022-09-14T14:55:08.996Z,100068.84
2022-09-14T14:57:35.755Z,100065.41
2022-09-14T15:00:02.649Z,100064.94
2022-09-14T15:02:29.306Z,100064.34
2022-09-14T15:04:57.060Z,100064.03
2022-09-14T15:07:23.737Z,100058.13
2022-09-14T15:09:50.427Z,100058.53
2022-09-14T15:12:17.118Z,100053.66
2022-09-14T15:14:43.808Z,100061.06
2022-09-14T15:17:10.764Z,100053.78
2022-09-14T15:19:37.436Z,100055.16
2022-09-14T15:22:04.201Z,100043.03
2022-09-14T15:24:30.976Z,100043.16
2022-09-14T15:26:58.268Z,100042.69
2022-09-14T15:29:24.986Z,100038.53
2022-09-14T15:31:51.856Z,100038.66
2022-09-14T15:34:18.639Z,100033.34
2022-09-14T15:36:51.173Z,100040.75
2022-09-14T15:39:29.027Z,100038.16
2022-09-14T15:41:56.218Z,100031.53
2022-09-14T15:44:23.130Z,100033.28
2022-09-14T15:46:51.453Z,100029.84
2022-09-14T15:49:22.895Z,100032.69
2022-09-14T15:51:51.009Z,100039.22
2022-09-14T15:54:19.289Z,100043.16
2022-09-14T15:56:50.913Z,100038.47
2022-09-14T15:59:20.458Z,100040.47
2022-09-14T16:01:48.263Z,100038.00
2022-09-14T16:04:15.519Z,100045.38
2022-09-14T16:06:42.217Z,100051.03
2022-09-14T16:09:10.458Z,100056.84
2022-09-14T16:11:38.319Z,100043.59
2022-09-14T16:14:06.080Z,100050.97
2022-09-14T16:16:33.894Z,100042.25
2022-09-14T16:19:09.947Z,100035.97
2022-09-14T16:21:36.802Z,100036.22
2022-09-14T16:24:07.183Z,100036.47
2022-09-14T16:26:36.188Z,100040.41
2022-09-14T16:29:03.572Z,100043.50
2022-09-14T16:31:33.284Z,100037.38
2022-09-14T16:34:02.513Z,100042.16
2022-09-14T16:36:31.451Z,100043.41
2022-09-14T16:39:01.732Z,100038.38
2022-09-14T16:41:28.986Z,100048.47
2022-09-14T16:43:59.984Z,100050.66
2022-09-14T16:46:29.016Z,100045.53
2022-09-14T16:48:56.314Z,100044.78
2022-09-14T16:51:25.362Z,100043.28
2022-09-14T16:53:52.790Z,100029.91
2022-09-14T16:56:25.214Z,100038.13
2022-09-14T16:58:53.760Z,100037.50
2022-09-14T17:01:41.502Z,100030.75
2022-09-14T17:04:10.644Z,100028.44
2022-09-14T17:06:39.354Z,100025.13
2022-09-14T17:09:27.853Z,100031.53
2022-09-14T17:11:55.792Z,100029.31
2022-09-14T17:14:24.966Z,100030.53
2022-09-14T17:16:51.853Z,100035.31
2022-09-14T17:19:18.687Z,100017.03
2022-09-14T17:21:46.395Z,100026.25
2022-09-14T17:24:14.433Z,100019.97
2022-09-14T17:26:41.703Z,100015.91
2022-09-14T17:29:08.776Z,100019.84
2022-09-14T17:31:38.040Z,100012.97
2022-09-14T17:34:06.578Z,100009.66
2022-09-14T17:36:33.485Z,100000.22
2022-09-14T17:39:02.544Z,99996.91
2022-09-14T17:41:31.762Z,100004.38
2022-09-14T17:44:01.661Z,100013.78
2022-09-14T17:46:30.019Z,100012.19
2022-09-14T17:48:58.455Z,100009.63
2022-09-14T17:51:29.844Z,100021.41
2022-09-14T17:53:58.831Z,100009.94
2022-09-14T17:56:27.813Z,100010.84
2022-09-14T17:59:06.701Z,100012.75
2022-09-14T18:01:34.193Z,100007.47
2022-09-14T18:04:03.343Z,100002.09
2022-09-14T18:06:34.653Z,100002.22
2022-09-14T18:09:04.932Z,99997.91
2022-09-14T18:11:32.134Z,99996.22
2022-09-14T18:13:58.989Z,99985.75
2022-09-14T18:16:26.551Z,99992.16
2022-09-14T18:18:53.280Z,99986.00
2022-09-14T18:21:20.472Z,99982.56
2022-09-14T18:23:51.421Z,99982.06
2022-09-14T18:26:18.461Z,99981.44
2022-09-14T18:28:45.293Z,99979.63
2022-09-14T18:31:16.044Z,99982.44
2022-09-14T18:33:55.031Z,99979.94
2022-09-14T18:36:22.731Z,99984.75
2022-09-14T18:38:49.963Z,99989.41
2022-09-14T18:41:17.688Z,99990.59
2022-09-14T18:43:51.248Z,99996.97
2022-09-14T18:46:18.776Z,99993.53
2022-09-14T18:48:45.922Z,99995.38
2022-09-14T18:51:14.117Z,99983.69
2022-09-14T18:53:41.113Z,99979.31
2022-09-14T18:56:10.283Z,99979.31
2022-09-14T18:58:39.255Z,99987.59
2022-09-14T19:01:06.645Z,99989.56
2022-09-14T19:03:34.784Z,99983.44
2022-09-14T19:06:12.998Z,99987.97
2022-09-14T19:08:40.109Z,99987.34
2022-09-14T19:11:08.917Z,99995.53
2022-09-14T19:13:35.825Z,99991.03
2022-09-14T19:16:11.037Z,99981.09
2022-09-14T19:18:38.653Z,99982.06
2022-09-14T19:21:11.545Z,99976.81
2022-09-14T19:23:39.150Z,99978.03
2022-09-14T19:26:14.818Z,99992.34
2022-09-14T19:28:42.089Z,99990.84
2022-09-14T19:31:12.128Z,99997.22
2022-09-14T19:33:44.505Z,99991.06
2022-09-14T19:36:14.641Z,100002.75
2022-09-14T19:38:41.627Z,99996.59
2022-09-14T19:41:08.985Z,99987.88
2022-09-14T19:43:36.195Z,99994.22
2022-09-14T19:46:08.347Z,99998.13
2022-09-14T19:48:35.749Z,99994.69
2022-09-14T19:51:07.992Z,100006.66
2022-09-14T19:53:36.028Z,100000.66
2022-09-14T19:56:06.054Z,99996.88
2022-09-14T19:58:37.356Z,99997.31
2022-09-14T20:01:05.047Z,99996.53
2022-09-14T20:03:32.652Z,99987.59
2022-09-14T20:06:04.594Z,99986.75
2022-09-14T20:08:32.461Z,99995.19
2022-09-14T20:11:10.924Z,100003.38
2022-09-14T20:13:39.412Z,99996.25
2022-09-14T20:16:17.933Z,99994.75
2022-09-14T20:18:46.026Z,99990.47
2022-09-14T20:21:15.311Z,99991.56
2022-09-14T20:23:57.992Z,99988.97
2022-09-14T20:26:29.448Z,99991.03
2022-09-14T20:28:58.001Z,99987.69
2022-09-14T20:31:24.929Z,99982.53
2022-09-14T20:33:51.806Z,99993.41
2022-09-14T20:36:20.058Z,99981.16
2022-09-14T20:38:50.365Z,99992.03
2022-09-14T20:41:18.190Z,99989.56
2022-09-14T20:43:46.778Z,99991.50
2022-09-14T20:46:17.526Z,100000.66
2022-09-14T20:48:44.672Z,100002.81
2022-09-14T20:51:11.662Z,100005.63
2022-09-14T20:53:40.093Z,100000.59
2022-09-14T20:56:09.343Z,99999.84
2022-09-14T20:58:36.050Z,99993.81
2022-09-14T21:01:24.835Z,99990.34
2022-09-14T21:03:51.814Z,99995.84
2022-09-14T21:06:21.174Z,99993.50
2022-09-14T21:08:48.239Z,99990.91
2022-09-14T21:11:24.270Z,99994.69
2022-09-14T21:13:53.693Z,99987.66
2022-09-14T21:16:23.097Z,99988.75
2022-09-14T21:18:55.627Z,100003.16
2022-09-14T21:21:22.447Z,99998.88
2022-09-14T21:23:50.447Z,100003.38
2022-09-14T21:26:18.696Z,100003.38
2022-09-14T21:28:45.655Z,100000.81
2022-09-14T21:31:16.005Z,99999.09
2022-09-14T21:33:44.594Z,99992.09
2022-09-14T21:36:19.010Z,99994.03
2022-09-14T21:38:55.045Z,99994.25
2022-09-14T21:41:23.532Z,100002.53
2022-09-14T21:43:50.476Z,100005.53
2022-09-14T21:46:17.756Z,100004.56
2022-09-14T21:48:44.763Z,100006.41
2022-09-14T21:51:24.556Z,100002.63
2022-09-14T21:53:57.511Z,99998.31
2022-09-14T21:56:26.928Z,100009.16
2022-09-14T21:58:58.213Z,99998.53
2022-09-14T22:01:25.534Z,100001.22
2022-09-14T22:03:53.287Z,99994.00
2022-09-14T22:06:22.736Z,99976.47
2022-09-14T22:08:49.951Z,99998.72
2022-09-14T22:11:22.405Z,100001.50
2022-09-14T22:13:54.437Z,99995.38
2022-09-14T22:16:23.137Z,100000.00
2022-09-14T22:18:56.408Z,99999.16
2022-09-14T22:21:24.841Z,99987.66
2022-09-14T22:23:53.573Z,99990.34
2022-09-14T22:26:20.677Z,99995.72
2022-09-14T22:28:49.263Z,99989.56
2022-09-14T22:31:19.474Z,99983.44
2022-09-14T22:33:46.346Z,99984.41
2022-09-14T22:36:13.298Z,99980.19
2022-09-14T22:38:41.141Z,99977.50
2022-09-14T22:41:17.975Z,99984.41
2022-09-14T22:43:45.492Z,99988.06
2022-09-14T22:46:12.969Z,99986.34
2022-09-14T22:48:40.217Z,99984.63
2022-09-14T22:51:08.768Z,99987.41
2022-09-14T22:53:36.920Z,99987.41
2022-09-14T22:56:18.029Z,99986.56
2022-09-14T22:58:45.622Z,99986.66
2022-09-14T23:01:18.466Z,99988.59
2022-09-14T23:03:45.364Z,99983.31
2022-09-14T23:06:12.162Z,99987.75
2022-09-14T23:08:39.280Z,99986.09
2022-09-14T23:11:08.333Z,99991.38
2022-09-14T23:13:35.762Z,99991.47
2022-09-14T23:16:08.587Z,99986.00
2022-09-14T23:18:35.267Z,99983.31
2022-09-14T23:21:03.360Z,99982.47
2022-09-14T23:23:30.041Z,99979.13
2022-09-14T23:26:02.433Z,99979.03
2022-09-14T23:28:29.691Z,99981.72
2022-09-14T23:30:56.355Z,99979.13
2022-09-14T23:33:23.189Z,99980.94
2022-09-14T23:35:49.966Z,99968.59
2022-09-14T23:38:16.744Z,99965.78
2022-09-14T23:40:43.589Z,99972.88
2022-09-14T23:43:10.478Z,99979.03
2022-09-14T23:45:37.653Z,99971.06
2022-09-14T23:48:04.417Z,99961.59
2022-09-14T23:50:31.971Z,99968.69
2022-09-14T23:52:58.672Z,99966.97
2022-09-14T23:55:25.764Z,99969.56
2022-09-14T23:57:52.782Z,99963.41
